.
WxDataArchive / Data Records for 2009-08-31
2009-08-30 August 2009 2009-09-01

Data Records for Monday, 31 August 2009

Time	Temp	Chill	HIndex	Humid	Dewpt	 Wind 	HiWind	WindDir	Rain 	Barom 
-----	----	-----	------	-----	-----	------	------	-------	-----	----- 
00:00	54.2	54.2	54.2	84	49.5	0	0	---	0.00	30.199 
00:05	54.1	54.1	54.1	84	49.4	0	0	---	0.00	30.199 
00:10	53.9	53.9	53.9	84	49.2	0	0	---	0.00	30.199 
00:15	53.9	53.9	53.9	84	49.2	0	0	---	0.00	30.203 
00:20	53.8	53.8	53.8	84	49.1	0	0	---	0.00	30.203 
00:25	53.6	53.6	53.6	84	48.9	0	0	---	0.00	30.203 
00:30	53.5	53.5	53.5	84	48.8	0	0	---	0.00	30.206 
00:35	53.3	53.3	53.3	84	48.6	0	0	---	0.00	30.206 
00:40	53.3	53.3	53.3	85	48.9	0	0	---	0.00	30.206 
00:45	53.2	53.2	53.2	85	48.8	0	0	---	0.00	30.208 
00:50	53.2	53.2	53.2	85	48.8	0	0	---	0.00	30.208 
00:55	53.1	53.1	53.1	85	48.7	0	0	---	0.00	30.208 
01:00	52.9	52.9	52.9	85	48.5	0	0	---	0.00	30.208 
01:05	52.8	52.8	52.8	85	48.4	0	0	---	0.00	30.208 
01:10	52.6	52.6	52.6	86	48.5	0	0	---	0.00	30.208 
01:15	52.5	52.5	52.5	86	48.4	0	0	---	0.00	30.208 
01:20	52.3	52.3	52.3	86	48.2	0	0	---	0.00	30.208 
01:25	52.2	52.2	52.2	86	48.1	0	0	---	0.00	30.208 
01:30	51.9	51.9	51.9	86	47.8	0	0	---	0.00	30.206 
01:35	51.7	51.7	51.7	87	48.0	0	0	---	0.00	30.206 
01:40	51.4	51.4	51.4	87	47.7	0	0	---	0.00	30.206 
01:45	51.3	51.3	51.3	88	47.9	0	0	---	0.00	30.208 
01:50	51.1	51.1	51.1	88	47.7	0	0	---	0.00	30.208 
01:55	51.0	51.0	51.0	88	47.6	0	0	---	0.00	30.208 
02:00	50.7	50.7	50.7	88	47.3	0	0	---	0.00	30.204 
02:05	50.5	50.5	50.5	89	47.4	0	0	---	0.00	30.204 
02:10	50.5	50.5	50.5	89	47.4	0	0	---	0.00	30.204 
02:15	50.4	50.4	50.4	90	47.6	0	0	---	0.00	30.200 
02:20	50.2	50.2	50.2	90	47.4	0	0	---	0.00	30.200 
02:25	50.1	50.1	50.1	90	47.3	0	0	---	0.00	30.200 
02:30	49.9	49.9	49.9	91	47.4	0	0	---	0.00	30.198 
02:35	49.9	49.9	49.9	91	47.4	0	0	---	0.00	30.198 
02:40	49.8	49.8	49.8	91	47.3	0	0	---	0.00	30.198 
02:45	49.8	49.8	49.8	92	47.6	0	0	---	0.00	30.197 
02:50	49.6	49.6	49.6	92	47.4	0	0	---	0.00	30.197 
02:55	49.6	49.6	49.6	92	47.4	0	0	---	0.00	30.197 
03:00	49.5	49.5	49.5	92	47.3	0	0	---	0.00	30.198 
03:05	49.5	49.5	49.5	92	47.3	0	0	---	0.00	30.198 
03:10	49.5	49.5	49.5	92	47.3	0	0	---	0.00	30.198 
03:15	49.5	49.5	49.5	93	47.6	0	0	---	0.00	30.198 
03:20	49.5	49.5	49.5	93	47.6	0	0	---	0.00	30.198 
03:25	49.4	49.4	49.4	93	47.5	0	0	---	0.00	30.198 
03:30	49.2	49.2	49.2	93	47.3	0	0	---	0.00	30.200 
03:35	49.2	49.2	49.2	93	47.3	0	0	---	0.00	30.200 
03:40	48.9	48.9	48.9	93	47.0	0	0	---	0.00	30.200 
03:45	48.8	48.8	48.8	93	46.9	0	0	---	0.00	30.201 
03:50	48.8	48.8	48.8	93	46.9	0	0	---	0.00	30.201 
03:55	48.6	48.6	48.6	93	46.7	0	0	---	0.00	30.201 
04:00	48.5	48.5	48.5	93	46.6	0	0	---	0.00	30.200 
04:05	48.5	48.5	48.5	93	46.6	0	0	---	0.00	30.200 
04:10	48.3	48.3	48.3	93	46.4	0	0	---	0.00	30.200 
04:15	48.3	48.3	48.3	93	46.4	0	0	---	0.00	30.204 
04:20	48.2	48.2	48.2	93	46.3	0	0	---	0.00	30.204 
04:25	48.0	48.0	48.0	94	46.4	0	0	---	0.00	30.204 
04:30	48.0	48.0	48.0	94	46.4	0	0	---	0.00	30.208 
04:35	48.2	48.2	48.2	94	46.6	0	0	---	0.00	30.208 
04:40	48.2	48.2	48.2	94	46.6	0	0	---	0.00	30.208 
04:45	48.0	48.0	48.0	94	46.4	0	0	---	0.00	30.212 
04:50	48.0	48.0	48.0	94	46.4	0	0	---	0.00	30.212 
04:55	47.9	47.9	47.9	94	46.3	0	0	---	0.00	30.212 
05:00	47.9	47.9	47.9	94	46.3	0	0	---	0.00	30.212 
05:05	47.7	47.7	47.7	94	46.1	0	0	---	0.00	30.212 
05:10	47.6	47.6	47.6	94	46.0	0	0	---	0.00	30.212 
05:15	47.4	47.4	47.4	94	45.8	0	0	---	0.00	30.212 
05:20	47.3	47.3	47.3	94	45.7	0	0	---	0.00	30.212 
05:25	47.1	47.1	47.1	94	45.5	0	0	---	0.00	30.212 
05:30	47.0	47.0	47.0	94	45.4	0	0	---	0.00	30.214 
05:35	46.8	46.8	46.8	94	45.2	0	0	---	0.00	30.214 
05:40	46.7	46.7	46.7	94	45.1	0	0	---	0.00	30.214 
05:45	46.5	46.5	46.5	94	44.9	0	0	---	0.00	30.214 
05:50	46.5	46.5	46.5	94	44.9	0	0	---	0.00	30.214 
05:55	46.4	46.4	46.4	94	44.8	0	0	---	0.00	30.214 
06:00	46.2	46.2	46.2	95	44.8	0	0	---	0.00	30.218 
06:05	46.1	46.1	46.1	95	44.7	0	0	---	0.00	30.218 
06:10	46.1	46.1	46.1	95	44.7	0	0	---	0.00	30.218 
06:15	46.1	46.1	46.1	95	44.7	0	0	---	0.00	30.219 
06:20	46.0	46.0	46.0	95	44.6	0	0	---	0.00	30.219 
06:25	45.8	45.8	45.8	95	44.4	0	0	---	0.00	30.219 
06:30	45.7	45.7	45.7	95	44.4	0	0	---	0.00	30.224 
06:35	45.7	45.7	45.7	95	44.4	0	0	---	0.00	30.224 
06:40	45.5	45.5	45.5	95	44.2	0	0	---	0.00	30.224 
06:45	45.5	45.5	45.5	95	44.2	0	0	---	0.00	30.230 
06:50	45.4	45.4	45.4	95	44.1	0	0	---	0.00	30.230 
06:55	45.4	45.4	45.4	95	44.1	0	0	---	0.00	30.230 
07:00	45.4	45.4	45.4	95	44.1	0	0	---	0.00	30.237 
07:05	45.4	45.4	45.4	95	44.1	0	0	---	0.00	30.237 
07:10	45.4	45.4	45.4	95	44.1	0	0	---	0.00	30.237 
07:15	45.4	45.4	45.4	95	44.1	0	0	---	0.00	30.243 
07:20	45.4	45.4	45.4	95	44.1	0	0	---	0.00	30.243 
07:25	45.5	45.5	45.5	95	44.2	0	0	---	0.00	30.243 
07:30	45.7	45.7	45.7	95	44.4	0	0	---	0.00	30.249 
07:35	45.8	45.8	45.8	96	44.7	0	0	---	0.00	30.249 
07:40	46.0	46.0	46.0	96	44.9	0	0	---	0.00	30.249 
07:45	46.1	46.1	46.1	96	45.0	0	0	---	0.00	30.254 
07:50	46.4	46.4	46.4	96	45.3	0	0	---	0.00	30.254 
07:55	46.5	46.5	46.5	96	45.4	0	0	---	0.00	30.254 
08:00	47.1	47.1	47.1	96	46.0	0	0	---	0.00	30.259 
08:05	47.6	47.6	47.6	96	46.5	0	0	---	0.00	30.259 
08:10	48.2	48.2	48.2	96	47.1	0	0	---	0.00	30.259 
08:15	48.8	48.8	48.8	96	47.7	0	0	---	0.00	30.265 
08:20	49.5	49.5	49.5	96	48.4	0	0	---	0.00	30.265 
08:25	50.2	50.2	50.2	96	49.1	0	0	---	0.00	30.265 
08:30	51.3	51.3	51.3	97	50.5	0	0	---	0.00	30.266 
08:35	52.2	52.2	52.2	96	51.1	0	1	0	0.00	30.266 
08:40	52.3	52.3	52.3	95	50.9	1	3	0	0.00	30.266 
08:45	52.6	52.6	52.6	93	50.6	0	2	0	0.00	30.267 
08:50	52.6	52.6	52.6	92	50.3	1	3	22	0.00	30.267 
08:55	52.8	52.8	52.8	91	50.2	0	2	22	0.00	30.267 
09:00	53.1	53.1	53.1	91	50.5	0	2	22	0.00	30.272 
09:05	53.3	53.3	53.3	90	50.4	0	2	22	0.00	30.272 
09:10	53.6	53.6	53.6	89	50.4	0	2	22	0.00	30.272 
09:15	53.9	53.9	53.9	88	50.4	1	4	22	0.00	30.270 
09:20	54.2	54.2	54.2	88	50.7	1	4	112	0.00	30.270 
09:25	54.7	54.7	54.7	87	50.9	0	3	112	0.00	30.270 
09:30	55.0	55.0	55.0	85	50.6	1	4	112	0.00	30.274 
09:35	55.3	55.3	55.3	84	50.5	1	3	90	0.00	30.274 
09:40	55.6	55.6	55.6	84	50.8	0	2	90	0.00	30.274 
09:45	55.7	55.7	55.7	84	50.9	0	1	90	0.00	30.278 
09:50	56.0	56.0	56.0	84	51.2	0	1	90	0.00	30.278 
09:55	56.3	56.3	56.3	84	51.5	0	2	90	0.00	30.278 
10:00	56.7	56.7	56.7	83	51.6	0	1	90	0.00	30.277 
10:05	57.5	57.5	57.5	83	52.4	0	3	90	0.00	30.277 
10:10	58.4	58.4	58.4	81	52.6	1	3	90	0.00	30.277 
10:15	59.2	59.2	59.2	77	52.0	0	2	90	0.00	30.277 
10:20	60.1	60.1	60.1	73	51.4	0	2	90	0.00	30.277 
10:25	60.9	60.9	60.9	71	51.4	0	2	90	0.00	30.277 
10:30	61.5	61.5	61.5	69	51.2	0	2	90	0.00	30.277 
10:35	61.6	61.6	61.6	69	51.3	0	3	90	0.00	30.277 
10:40	62.3	62.3	62.3	66	50.8	0	3	90	0.00	30.277 
10:45	63.1	63.1	63.1	65	51.1	0	1	90	0.00	30.275 
10:50	64.2	64.2	64.2	66	52.6	0	2	90	0.00	30.275 
10:55	64.8	64.8	64.8	63	51.9	1	3	90	0.00	30.275 
11:00	65.2	65.2	65.2	61	51.4	1	2	90	0.00	30.275 
11:05	65.5	65.5	65.5	63	52.6	0	2	68	0.00	30.275 
11:10	65.6	65.6	65.6	63	52.7	1	3	68	0.00	30.275 
11:15	66.0	66.0	66.0	63	53.0	0	3	90	0.00	30.276 
11:20	66.3	66.3	66.3	65	54.2	0	2	90	0.00	30.276 
11:25	66.8	66.8	66.8	62	53.4	0	3	90	0.00	30.276 
11:30	66.6	66.6	66.6	58	51.4	0	1	90	0.00	30.280 
11:35	66.9	66.9	66.9	58	51.6	0	1	112	0.00	30.280 
11:40	67.4	67.4	67.4	55	50.7	0	2	112	0.00	30.280 
11:45	68.1	68.1	68.1	53	50.3	1	2	112	0.00	30.280 
11:50	68.1	68.1	68.1	52	49.8	0	1	112	0.00	30.280 
11:55	68.1	68.1	68.1	50	48.7	1	3	112	0.00	30.280 
12:00	68.1	68.1	68.1	52	49.8	0	1	112	0.00	30.279 
12:05	68.3	68.3	68.3	49	48.4	1	4	90	0.00	30.279 
12:10	68.8	68.8	68.8	46	47.2	1	3	112	0.00	30.279 
12:15	69.1	69.1	69.1	47	48.0	1	4	112	0.00	30.277 
12:20	69.3	69.3	69.3	46	47.6	1	4	112	0.00	30.277 
12:25	68.9	68.9	68.9	46	47.3	0	2	112	0.00	30.277 
12:30	68.8	68.8	68.8	46	47.2	0	1	112	0.00	30.279 
12:35	69.1	69.1	69.1	47	48.0	0	2	248	0.00	30.279 
12:40	68.6	68.6	68.6	46	47.0	0	3	248	0.00	30.279 
12:45	68.3	68.3	68.3	48	47.8	0	1	248	0.00	30.275 
12:50	68.9	68.9	68.9	50	49.5	1	4	90	0.00	30.275 
12:55	69.4	69.4	69.4	46	47.7	1	2	90	0.00	30.275 
13:00	69.9	69.9	69.9	43	46.4	0	2	112	0.00	30.275 
13:05	69.9	69.9	69.9	47	48.7	0	3	292	0.00	30.275 
13:10	69.8	69.8	69.8	46	48.1	1	4	90	0.00	30.275 
13:15	69.3	69.3	69.3	48	48.8	0	3	90	0.00	30.273 
13:20	68.6	68.6	68.6	47	47.6	0	2	90	0.00	30.273 
13:25	68.6	68.6	68.6	48	48.1	0	2	248	0.00	30.273 
13:30	68.3	68.3	68.3	47	47.3	0	1	248	0.00	30.275 
13:35	67.4	67.4	67.4	48	47.0	0	1	248	0.00	30.275 
13:40	66.8	66.8	66.8	48	46.5	0	1	248	0.00	30.275 
13:45	66.3	66.3	66.3	48	46.0	0	2	248	0.00	30.275 
13:50	66.4	66.4	66.4	45	44.4	0	2	248	0.00	30.275 
13:55	66.4	66.4	66.4	51	47.7	0	1	22	0.00	30.275 
14:00	66.4	66.4	66.4	47	45.5	0	1	22	0.00	30.274 
14:05	66.9	66.9	66.9	49	47.1	1	3	45	0.00	30.274 
14:10	68.1	68.1	68.1	50	48.7	1	4	68	0.00	30.274 
14:15	68.9	68.9	68.9	44	46.1	2	4	90	0.00	30.271 
14:20	68.8	68.8	68.8	48	48.3	1	5	112	0.00	30.271 
14:25	68.4	68.4	68.4	48	47.9	1	3	90	0.00	30.271 
14:30	68.4	68.4	68.4	47	47.4	1	2	90	0.00	30.268 
14:35	68.8	68.8	68.8	46	47.2	1	4	90	0.00	30.268 
14:40	69.3	69.3	69.3	46	47.6	1	4	90	0.00	30.268 
14:45	69.8	69.8	69.8	43	46.3	1	3	90	0.00	30.261 
14:50	69.9	69.9	69.9	45	47.6	1	4	90	0.00	30.261 
14:55	70.4	70.4	70.4	48	49.8	0	2	90	0.00	30.261 
15:00	70.4	70.4	70.4	45	48.0	0	1	90	0.00	30.259 
15:05	70.4	70.4	70.4	46	48.6	1	3	90	0.00	30.259 
15:10	69.8	69.8	69.8	43	46.3	0	2	90	0.00	30.259 
15:15	69.6	69.6	69.6	44	46.7	1	3	90	0.00	30.258 
15:20	69.4	69.4	69.4	47	48.3	0	0	---	0.00	30.258 
15:25	68.9	68.9	68.9	47	47.8	0	1	90	0.00	30.258 
15:30	68.6	68.6	68.6	48	48.1	1	4	90	0.00	30.256 
15:35	68.1	68.1	68.1	52	49.8	0	1	112	0.00	30.256 
15:40	67.8	67.8	67.8	50	48.5	0	1	112	0.00	30.256 
15:45	67.6	67.6	67.6	50	48.3	0	1	112	0.00	30.253 
15:50	67.8	67.8	67.8	53	50.0	0	1	112	0.00	30.253 
15:55	68.4	68.4	68.4	50	49.0	0	1	112	0.00	30.253 
16:00	68.9	68.9	68.9	48	48.4	0	1	112	0.00	30.243 
16:05	69.4	69.4	69.4	45	47.1	0	1	112	0.00	30.243 
16:10	69.9	69.9	69.9	41	45.1	0	2	112	0.00	30.243 
16:15	70.3	70.3	70.3	40	44.8	0	1	112	0.00	30.240 
16:20	70.9	70.9	70.9	40	45.4	0	1	112	0.00	30.240 
16:25	70.8	70.8	70.8	48	50.1	1	4	90	0.00	30.240 
16:30	70.1	70.1	70.1	45	47.8	0	2	90	0.00	30.241 
16:35	69.4	69.4	69.4	47	48.3	0	2	90	0.00	30.241 
16:40	68.8	68.8	68.8	48	48.3	1	2	90	0.00	30.241 
16:45	68.3	68.3	68.3	47	47.3	0	2	90	0.00	30.243 
16:50	68.1	68.1	68.1	51	49.3	0	1	90	0.00	30.243 
16:55	67.9	67.9	67.9	50	48.6	0	1	90	0.00	30.243 
17:00	67.6	67.6	67.6	49	47.8	0	2	90	0.00	30.242 
17:05	67.6	67.6	67.6	49	47.8	0	1	90	0.00	30.242 
17:10	67.6	67.6	67.6	46	46.1	0	1	90	0.00	30.242 
17:15	67.8	67.8	67.8	46	46.3	0	1	90	0.00	30.238 
17:20	68.3	68.3	68.3	46	46.7	0	0	---	0.00	30.238 
17:25	68.6	68.6	68.6	43	45.2	0	1	90	0.00	30.238 
17:30	69.1	69.1	69.1	48	48.6	0	1	90	0.00	30.232 
17:35	69.4	69.4	69.4	45	47.1	0	1	90	0.00	30.232 
17:40	69.6	69.6	69.6	46	47.9	0	1	90	0.00	30.232 
17:45	69.8	69.8	69.8	43	46.3	0	1	90	0.00	30.230 
17:50	70.1	70.1	70.1	44	47.2	0	1	90	0.00	30.230 
17:55	70.3	70.3	70.3	45	47.9	0	2	90	0.00	30.230 
18:00	70.1	70.1	70.1	46	48.3	1	4	112	0.00	30.230 
18:05	69.8	69.8	69.8	46	48.1	1	3	112	0.00	30.230 
18:10	69.3	69.3	69.3	48	48.8	0	2	112	0.00	30.230 
18:15	68.8	68.8	68.8	47	47.7	1	3	112	0.00	30.233 
18:20	68.4	68.4	68.4	49	48.5	0	1	112	0.00	30.233 
18:25	67.9	67.9	67.9	49	48.0	0	1	112	0.00	30.233 
18:30	67.4	67.4	67.4	48	47.0	0	0	---	0.00	30.238 
18:35	66.9	66.9	66.9	50	47.6	0	0	---	0.00	30.238 
18:40	66.6	66.6	66.6	52	48.4	0	0	---	0.00	30.238 
18:45	66.4	66.4	66.4	50	47.2	0	0	---	0.00	30.236 
18:50	66.4	66.4	66.4	50	47.2	0	1	112	0.00	30.236 
18:55	66.4	66.4	66.4	51	47.7	0	0	---	0.00	30.236 
19:00	66.4	66.4	66.4	52	48.2	0	1	112	0.00	30.239 
19:05	66.3	66.3	66.3	53	48.6	0	0	---	0.00	30.239 
19:10	66.0	66.0	66.0	52	47.9	0	1	112	0.00	30.239 
19:15	65.8	65.8	65.8	51	47.2	0	1	112	0.00	30.238 
19:20	65.6	65.6	65.6	55	49.0	0	0	---	0.00	30.238 
19:25	65.5	65.5	65.5	54	48.4	0	0	---	0.00	30.238 
19:30	65.3	65.3	65.3	55	48.7	0	0	---	0.00	30.237 
19:35	65.2	65.2	65.2	55	48.6	0	0	---	0.00	30.237 
19:40	65.0	65.0	65.0	55	48.4	0	0	---	0.00	30.237 
19:45	64.7	64.7	64.7	55	48.2	0	0	---	0.00	30.240 
19:50	64.3	64.3	64.3	56	48.3	0	0	---	0.00	30.240 
19:55	64.0	64.0	64.0	57	48.5	0	0	---	0.00	30.240 
20:00	63.7	63.7	63.7	58	48.6	0	0	---	0.00	30.242 
20:05	63.2	63.2	63.2	58	48.2	0	0	---	0.00	30.242 
20:10	62.9	62.9	62.9	60	48.8	0	0	---	0.00	30.242 
20:15	62.4	62.4	62.4	63	49.6	0	0	---	0.00	30.240 
20:20	62.1	62.1	62.1	64	49.8	0	0	---	0.00	30.240 
20:25	61.6	61.6	61.6	65	49.7	0	0	---	0.00	30.240 
20:30	61.2	61.2	61.2	65	49.3	0	0	---	0.00	30.242 
20:35	60.7	60.7	60.7	67	49.7	0	0	---	0.00	30.242 
20:40	60.2	60.2	60.2	69	50.0	0	0	---	0.00	30.242 
20:45	59.8	59.8	59.8	71	50.4	0	0	---	0.00	30.247 
20:50	59.3	59.3	59.3	72	50.3	0	0	---	0.00	30.247 
20:55	58.9	58.9	58.9	73	50.3	0	0	---	0.00	30.247 
21:00	58.6	58.6	58.6	73	50.0	0	0	---	0.00	30.253 
21:05	58.3	58.3	58.3	75	50.4	0	0	---	0.00	30.253 
21:10	58.0	58.0	58.0	77	50.8	0	0	---	0.00	30.253 
21:15	57.6	57.6	57.6	77	50.4	0	0	---	0.00	30.259 
21:20	57.5	57.5	57.5	78	50.7	0	0	---	0.00	30.259 
21:25	57.2	57.2	57.2	79	50.7	0	0	---	0.00	30.259 
21:30	57.0	57.0	57.0	80	50.9	0	0	---	0.00	30.262 
21:35	56.7	56.7	56.7	81	50.9	0	0	---	0.00	30.262 
21:40	56.5	56.5	56.5	82	51.1	0	0	---	0.00	30.262 
21:45	56.3	56.3	56.3	83	51.2	0	0	---	0.00	30.264 
21:50	56.0	56.0	56.0	84	51.2	0	0	---	0.00	30.264 
21:55	55.7	55.7	55.7	84	50.9	0	0	---	0.00	30.264 
22:00	55.4	55.4	55.4	84	50.6	0	0	---	0.00	30.268 
22:05	55.3	55.3	55.3	85	50.9	0	0	---	0.00	30.268 
22:10	55.1	55.1	55.1	85	50.7	0	0	---	0.00	30.268 
22:15	54.8	54.8	54.8	86	50.7	0	0	---	0.00	30.264 
22:20	54.7	54.7	54.7	86	50.6	0	0	---	0.00	30.264 
22:25	54.5	54.5	54.5	86	50.4	0	0	---	0.00	30.264 
22:30	54.2	54.2	54.2	87	50.4	0	0	---	0.00	30.271 
22:35	54.1	54.1	54.1	87	50.3	0	0	---	0.00	30.271 
22:40	53.9	53.9	53.9	87	50.1	0	0	---	0.00	30.271 
22:45	53.8	53.8	53.8	88	50.3	0	0	---	0.00	30.273 
22:50	53.6	53.6	53.6	88	50.1	0	0	---	0.00	30.273 
22:55	53.3	53.3	53.3	88	49.8	0	0	---	0.00	30.273 
23:00	53.2	53.2	53.2	88	49.7	0	0	---	0.00	30.275 
23:05	53.1	53.1	53.1	88	49.6	0	0	---	0.00	30.275 
23:10	52.9	52.9	52.9	88	49.4	0	0	---	0.00	30.275 
23:15	52.8	52.8	52.8	89	49.6	0	0	---	0.00	30.275 
23:20	52.8	52.8	52.8	89	49.6	0	0	---	0.00	30.275 
23:25	52.6	52.6	52.6	89	49.4	0	0	---	0.00	30.275 
23:30	52.5	52.5	52.5	90	49.7	0	0	---	0.00	30.281 
23:35	52.5	52.5	52.5	90	49.7	0	0	---	0.00	30.281 
23:40	52.5	52.5	52.5	90	49.7	0	0	---	0.00	30.281 
23:45	52.3	52.3	52.3	90	49.5	0	0	---	0.00	30.282 
23:50	52.3	52.3	52.3	91	49.8	0	0	---	0.00	30.282 
23:55	52.2	52.2	52.2	91	49.7	0	0	---	0.00	30.282 

CoCoRaHS
IN-AL-39
A2 Web Hosting
Creative Commons License
GoDaddy
search engine by freefind advanced

loaded 2018-11-13 23:49:10 • last modified 2010-11-18 10:43:29
Privacy PolicyDisclaimer
• wx.awcolley.com is powered by PmWiki v.2002016 •
• all content (unless otherwise noted) © 2018 A W Colley